sensor_id;sensor_type;location;lat;lon;timestamp;temperature;humidity
7606;DHT22;3844;53.360;9.738;2022-08-07T00:01:57;9.60;92.70
7606;DHT22;3844;53.360;9.738;2022-08-07T00:03:58;9.60;92.70
7606;DHT22;3844;53.360;9.738;2022-08-07T00:06:00;9.50;92.80
7606;DHT22;3844;53.360;9.738;2022-08-07T00:08:00;9.50;93.00
7606;DHT22;3844;53.360;9.738;2022-08-07T00:10:01;9.50;93.10
7606;DHT22;3844;53.360;9.738;2022-08-07T00:12:02;9.40;93.30
7606;DHT22;3844;53.360;9.738;2022-08-07T00:14:03;9.40;93.30
7606;DHT22;3844;53.360;9.738;2022-08-07T00:16:04;9.40;93.30
7606;DHT22;3844;53.360;9.738;2022-08-07T00:18:05;9.40;93.20
7606;DHT22;3844;53.360;9.738;2022-08-07T00:20:06;9.30;93.20
7606;DHT22;3844;53.360;9.738;2022-08-07T00:22:07;9.30;93.20
7606;DHT22;3844;53.360;9.738;2022-08-07T00:24:08;9.20;93.30
7606;DHT22;3844;53.360;9.738;2022-08-07T00:26:10;9.20;93.50
7606;DHT22;3844;53.360;9.738;2022-08-07T00:28:11;9.20;93.50
7606;DHT22;3844;53.360;9.738;2022-08-07T00:30:12;9.10;93.50
7606;DHT22;3844;53.360;9.738;2022-08-07T00:32:13;9.10;93.50
7606;DHT22;3844;53.360;9.738;2022-08-07T00:34:14;9.10;93.60
7606;DHT22;3844;53.360;9.738;2022-08-07T00:36:14;9.10;93.50
7606;DHT22;3844;53.360;9.738;2022-08-07T00:38:15;9.10;93.50
7606;DHT22;3844;53.360;9.738;2022-08-07T00:40:17;9.00;93.40
7606;DHT22;3844;53.360;9.738;2022-08-07T00:42:18;9.00;93.40
7606;DHT22;3844;53.360;9.738;2022-08-07T00:44:19;9.00;93.40
7606;DHT22;3844;53.360;9.738;2022-08-07T00:46:19;9.00;93.50
7606;DHT22;3844;53.360;9.738;2022-08-07T00:48:20;9.00;93.50
7606;DHT22;3844;53.360;9.738;2022-08-07T00:50:21;8.90;93.40
7606;DHT22;3844;53.360;9.738;2022-08-07T00:52:22;8.90;93.50
7606;DHT22;3844;53.360;9.738;2022-08-07T00:54:23;8.80;93.50
7606;DHT22;3844;53.360;9.738;2022-08-07T00:56:23;8.80;93.50
7606;DHT22;3844;53.360;9.738;2022-08-07T00:58:24;8.80;93.50
7606;DHT22;3844;53.360;9.738;2022-08-07T01:00:25;8.70;93.60
7606;DHT22;3844;53.360;9.738;2022-08-07T01:02:26;8.70;93.60
7606;DHT22;3844;53.360;9.738;2022-08-07T01:04:26;8.60;93.80
7606;DHT22;3844;53.360;9.738;2022-08-07T01:06:27;8.60;93.90
7606;DHT22;3844;53.360;9.738;2022-08-07T01:08:28;8.60;94.00
7606;DHT22;3844;53.360;9.738;2022-08-07T01:10:29;8.60;94.00
7606;DHT22;3844;53.360;9.738;2022-08-07T01:12:30;8.60;94.00
7606;DHT22;3844;53.360;9.738;2022-08-07T01:14:31;8.50;94.00
7606;DHT22;3844;53.360;9.738;2022-08-07T01:16:31;8.50;94.20
7606;DHT22;3844;53.360;9.738;2022-08-07T01:18:33;8.50;94.30
7606;DHT22;3844;53.360;9.738;2022-08-07T01:20:43;8.40;94.30
7606;DHT22;3844;53.360;9.738;2022-08-07T01:22:45;8.40;94.30
7606;DHT22;3844;53.360;9.738;2022-08-07T01:24:46;8.40;94.40
7606;DHT22;3844;53.360;9.738;2022-08-07T01:26:50;8.40;94.40
7606;DHT22;3844;53.360;9.738;2022-08-07T01:28:52;8.30;94.40
7606;DHT22;3844;53.360;9.738;2022-08-07T01:30:53;8.30;94.40
7606;DHT22;3844;53.360;9.738;2022-08-07T01:32:55;8.30;94.50
7606;DHT22;3844;53.360;9.738;2022-08-07T01:34:56;8.30;94.60
7606;DHT22;3844;53.360;9.738;2022-08-07T01:36:57;8.20;94.50
7606;DHT22;3844;53.360;9.738;2022-08-07T01:38:58;8.20;94.40
7606;DHT22;3844;53.360;9.738;2022-08-07T01:41:00;8.20;94.30
7606;DHT22;3844;53.360;9.738;2022-08-07T01:43:01;8.20;94.20
7606;DHT22;3844;53.360;9.738;2022-08-07T01:45:04;8.20;94.20
7606;DHT22;3844;53.360;9.738;2022-08-07T01:47:05;8.20;94.30
7606;DHT22;3844;53.360;9.738;2022-08-07T01:49:07;8.10;94.30
7606;DHT22;3844;53.360;9.738;2022-08-07T01:51:13;8.10;94.40
7606;DHT22;3844;53.360;9.738;2022-08-07T01:53:18;8.00;94.70
7606;DHT22;3844;53.360;9.738;2022-08-07T01:55:25;8.00;94.80
7606;DHT22;3844;53.360;9.738;2022-08-07T01:57:29;8.00;94.80
7606;DHT22;3844;53.360;9.738;2022-08-07T01:59:49;8.00;94.80
7606;DHT22;3844;53.360;9.738;2022-08-07T02:02:01;7.90;94.80
7606;DHT22;3844;53.360;9.738;2022-08-07T02:04:10;7.90;94.80
7606;DHT22;3844;53.360;9.738;2022-08-07T02:06:13;7.90;94.80
7606;DHT22;3844;53.360;9.738;2022-08-07T02:08:19;7.90;94.90
7606;DHT22;3844;53.360;9.738;2022-08-07T02:10:23;7.90;95.00
7606;DHT22;3844;53.360;9.738;2022-08-07T02:12:27;7.90;95.10
7606;DHT22;3844;53.360;9.738;2022-08-07T02:14:30;7.90;94.90
7606;DHT22;3844;53.360;9.738;2022-08-07T02:16:35;7.80;95.00
7606;DHT22;3844;53.360;9.738;2022-08-07T02:18:37;7.80;95.20
7606;DHT22;3844;53.360;9.738;2022-08-07T02:20:39;7.80;95.30
7606;DHT22;3844;53.360;9.738;2022-08-07T02:22:41;7.80;95.40
7606;DHT22;3844;53.360;9.738;2022-08-07T02:24:45;7.80;95.40
7606;DHT22;3844;53.360;9.738;2022-08-07T02:26:47;7.80;95.20
7606;DHT22;3844;53.360;9.738;2022-08-07T02:28:48;7.80;95.20
7606;DHT22;3844;53.360;9.738;2022-08-07T02:30:50;7.70;95.20
7606;DHT22;3844;53.360;9.738;2022-08-07T02:32:52;7.70;95.20
7606;DHT22;3844;53.360;9.738;2022-08-07T02:34:56;7.70;95.20
7606;DHT22;3844;53.360;9.738;2022-08-07T02:36:58;7.60;95.30
7606;DHT22;3844;53.360;9.738;2022-08-07T02:39:02;7.60;95.40
7606;DHT22;3844;53.360;9.738;2022-08-07T02:41:04;7.60;95.30
7606;DHT22;3844;53.360;9.738;2022-08-07T02:43:06;7.50;95.40
7606;DHT22;3844;53.360;9.738;2022-08-07T02:45:09;7.50;95.50
7606;DHT22;3844;53.360;9.738;2022-08-07T02:47:12;7.50;95.60
7606;DHT22;3844;53.360;9.738;2022-08-07T02:49:13;7.50;95.60
7606;DHT22;3844;53.360;9.738;2022-08-07T02:51:17;7.50;95.70
7606;DHT22;3844;53.360;9.738;2022-08-07T02:53:24;7.50;95.70
7606;DHT22;3844;53.360;9.738;2022-08-07T02:55:26;7.60;95.60
7606;DHT22;3844;53.360;9.738;2022-08-07T02:57:29;7.60;95.40
7606;DHT22;3844;53.360;9.738;2022-08-07T02:59:31;7.60;95.20
7606;DHT22;3844;53.360;9.738;2022-08-07T03:01:33;7.60;95.20
7606;DHT22;3844;53.360;9.738;2022-08-07T03:03:35;7.60;95.30
7606;DHT22;3844;53.360;9.738;2022-08-07T03:05:36;7.60;95.30
7606;DHT22;3844;53.360;9.738;2022-08-07T03:07:38;7.60;95.30
7606;DHT22;3844;53.360;9.738;2022-08-07T03:09:40;7.50;95.10
7606;DHT22;3844;53.360;9.738;2022-08-07T03:11:41;7.50;95.10
7606;DHT22;3844;53.360;9.738;2022-08-07T03:13:43;7.50;95.30
7606;DHT22;3844;53.360;9.738;2022-08-07T03:15:44;7.50;95.40
7606;DHT22;3844;53.360;9.738;2022-08-07T03:17:45;7.40;95.50
7606;DHT22;3844;53.360;9.738;2022-08-07T03:21:48;7.40;95.50
7606;DHT22;3844;53.360;9.738;2022-08-07T03:23:50;7.40;95.50
7606;DHT22;3844;53.360;9.738;2022-08-07T03:25:56;7.30;95.50
7606;DHT22;3844;53.360;9.738;2022-08-07T03:27:58;7.30;95.50
7606;DHT22;3844;53.360;9.738;2022-08-07T03:30:00;7.30;95.50
7606;DHT22;3844;53.360;9.738;2022-08-07T03:32:06;7.30;95.30
7606;DHT22;3844;53.360;9.738;2022-08-07T03:34:09;7.20;95.50
7606;DHT22;3844;53.360;9.738;2022-08-07T03:36:12;7.20;95.50
7606;DHT22;3844;53.360;9.738;2022-08-07T03:38:17;7.20;95.50
7606;DHT22;3844;53.360;9.738;2022-08-07T03:40:19;7.20;95.50
7606;DHT22;3844;53.360;9.738;2022-08-07T03:42:20;7.20;95.20
7606;DHT22;3844;53.360;9.738;2022-08-07T03:44:21;7.20;95.20
7606;DHT22;3844;53.360;9.738;2022-08-07T03:46:22;7.20;95.30
7606;DHT22;3844;53.360;9.738;2022-08-07T03:48:24;7.20;95.40
7606;DHT22;3844;53.360;9.738;2022-08-07T03:50:26;7.10;95.50
7606;DHT22;3844;53.360;9.738;2022-08-07T03:52:27;7.10;95.50
7606;DHT22;3844;53.360;9.738;2022-08-07T03:54:29;7.10;95.60
7606;DHT22;3844;53.360;9.738;2022-08-07T03:56:30;7.10;95.70
7606;DHT22;3844;53.360;9.738;2022-08-07T03:58:33;7.10;95.70
7606;DHT22;3844;53.360;9.738;2022-08-07T04:00:35;7.10;95.70
7606;DHT22;3844;53.360;9.738;2022-08-07T04:02:36;7.10;95.70
7606;DHT22;3844;53.360;9.738;2022-08-07T04:04:37;7.10;95.70
7606;DHT22;3844;53.360;9.738;2022-08-07T04:06:38;7.20;95.70
7606;DHT22;3844;53.360;9.738;2022-08-07T04:08:44;7.20;95.70
7606;DHT22;3844;53.360;9.738;2022-08-07T04:10:45;7.10;95.70
7606;DHT22;3844;53.360;9.738;2022-08-07T04:12:48;7.20;95.70
7606;DHT22;3844;53.360;9.738;2022-08-07T04:14:49;7.20;95.70
7606;DHT22;3844;53.360;9.738;2022-08-07T04:16:51;7.20;95.70
7606;DHT22;3844;53.360;9.738;2022-08-07T04:18:52;7.20;95.70
7606;DHT22;3844;53.360;9.738;2022-08-07T04:20:53;7.20;95.70
7606;DHT22;3844;53.360;9.738;2022-08-07T04:22:54;7.30;95.70
7606;DHT22;3844;53.360;9.738;2022-08-07T04:24:56;7.30;95.70
7606;DHT22;3844;53.360;9.738;2022-08-07T04:26:58;7.30;95.70
7606;DHT22;3844;53.360;9.738;2022-08-07T04:29:02;7.30;95.70
7606;DHT22;3844;53.360;9.738;2022-08-07T04:31:03;7.30;95.70
7606;DHT22;3844;53.360;9.738;2022-08-07T04:33:07;7.40;95.70
7606;DHT22;3844;53.360;9.738;2022-08-07T04:35:08;7.40;95.70
7606;DHT22;3844;53.360;9.738;2022-08-07T04:37:09;7.40;95.70
7606;DHT22;3844;53.360;9.738;2022-08-07T04:39:10;7.40;95.70
7606;DHT22;3844;53.360;9.738;2022-08-07T04:41:10;7.40;95.70
7606;DHT22;3844;53.360;9.738;2022-08-07T04:43:16;7.50;95.70
7606;DHT22;3844;53.360;9.738;2022-08-07T04:45:18;7.50;95.70
7606;DHT22;3844;53.360;9.738;2022-08-07T04:47:37;7.60;95.70
7606;DHT22;3844;53.360;9.738;2022-08-07T04:50:00;7.70;95.70
7606;DHT22;3844;53.360;9.738;2022-08-07T04:58:30;8.30;95.70
7606;DHT22;3844;53.360;9.738;2022-08-07T05:05:24;9.00;94.90
7606;DHT22;3844;53.360;9.738;2022-08-07T05:07:37;9.10;94.90
7606;DHT22;3844;53.360;9.738;2022-08-07T05:10:05;9.40;94.50
7606;DHT22;3844;53.360;9.738;2022-08-07T05:12:06;9.60;94.20
7606;DHT22;3844;53.360;9.738;2022-08-07T05:14:11;9.90;93.60
7606;DHT22;3844;53.360;9.738;2022-08-07T05:16:13;10.10;93.20
7606;DHT22;3844;53.360;9.738;2022-08-07T05:18:22;10.40;92.40
7606;DHT22;3844;53.360;9.738;2022-08-07T05:20:42;10.70;91.70
7606;DHT22;3844;53.360;9.738;2022-08-07T05:22:46;11.00;90.70
7606;DHT22;3844;53.360;9.738;2022-08-07T05:24:49;11.30;89.60
7606;DHT22;3844;53.360;9.738;2022-08-07T05:26:56;11.60;89.20
7606;DHT22;3844;53.360;9.738;2022-08-07T05:29:02;11.90;88.50
7606;DHT22;3844;53.360;9.738;2022-08-07T05:31:04;12.20;87.70
7606;DHT22;3844;53.360;9.738;2022-08-07T05:33:06;12.40;86.80
7606;DHT22;3844;53.360;9.738;2022-08-07T05:35:09;12.70;86.10
7606;DHT22;3844;53.360;9.738;2022-08-07T05:37:12;12.90;85.20
7606;DHT22;3844;53.360;9.738;2022-08-07T05:39:14;13.00;85.00
7606;DHT22;3844;53.360;9.738;2022-08-07T05:41:16;13.20;84.80
7606;DHT22;3844;53.360;9.738;2022-08-07T05:43:18;13.30;85.10
7606;DHT22;3844;53.360;9.738;2022-08-07T05:45:20;13.50;85.10
7606;DHT22;3844;53.360;9.738;2022-08-07T05:47:21;13.70;85.00
7606;DHT22;3844;53.360;9.738;2022-08-07T05:49:22;14.00;84.20
7606;DHT22;3844;53.360;9.738;2022-08-07T05:51:23;14.30;84.20
7606;DHT22;3844;53.360;9.738;2022-08-07T05:53:24;14.60;83.60
7606;DHT22;3844;53.360;9.738;2022-08-07T05:55:25;14.90;83.10
7606;DHT22;3844;53.360;9.738;2022-08-07T05:57:26;15.20;82.80
7606;DHT22;3844;53.360;9.738;2022-08-07T05:59:27;15.40;82.10
7606;DHT22;3844;53.360;9.738;2022-08-07T06:01:30;15.40;82.10
7606;DHT22;3844;53.360;9.738;2022-08-07T06:03:32;15.90;82.20
7606;DHT22;3844;53.360;9.738;2022-08-07T06:05:34;16.10;82.10
7606;DHT22;3844;53.360;9.738;2022-08-07T06:07:35;16.50;81.70
7606;DHT22;3844;53.360;9.738;2022-08-07T06:09:36;16.80;81.20
7606;DHT22;3844;53.360;9.738;2022-08-07T06:11:38;17.10;80.00
7606;DHT22;3844;53.360;9.738;2022-08-07T06:13:39;17.30;79.80
7606;DHT22;3844;53.360;9.738;2022-08-07T06:15:40;17.60;79.60
7606;DHT22;3844;53.360;9.738;2022-08-07T06:17:42;17.70;79.20
7606;DHT22;3844;53.360;9.738;2022-08-07T06:19:44;17.90;79.40
7606;DHT22;3844;53.360;9.738;2022-08-07T06:21:45;18.20;78.60
7606;DHT22;3844;53.360;9.738;2022-08-07T06:23:46;18.40;78.70
7606;DHT22;3844;53.360;9.738;2022-08-07T06:25:47;18.70;78.00
7606;DHT22;3844;53.360;9.738;2022-08-07T06:27:48;19.00;77.30
7606;DHT22;3844;53.360;9.738;2022-08-07T06:29:49;19.30;76.70
7606;DHT22;3844;53.360;9.738;2022-08-07T06:31:50;19.50;76.10
7606;DHT22;3844;53.360;9.738;2022-08-07T06:33:51;19.80;75.60
7606;DHT22;3844;53.360;9.738;2022-08-07T06:35:52;20.00;74.50
7606;DHT22;3844;53.360;9.738;2022-08-07T06:37:53;20.10;72.70
7606;DHT22;3844;53.360;9.738;2022-08-07T06:39:55;20.20;72.10
7606;DHT22;3844;53.360;9.738;2022-08-07T06:42:16;20.40;72.30
7606;DHT22;3844;53.360;9.738;2022-08-07T06:44:19;20.70;72.30
7606;DHT22;3844;53.360;9.738;2022-08-07T06:46:21;21.00;72.30
7606;DHT22;3844;53.360;9.738;2022-08-07T06:48:21;21.20;71.50
7606;DHT22;3844;53.360;9.738;2022-08-07T06:50:23;21.40;71.00
7606;DHT22;3844;53.360;9.738;2022-08-07T06:52:29;21.60;70.30
7606;DHT22;3844;53.360;9.738;2022-08-07T06:54:32;21.80;69.60
7606;DHT22;3844;53.360;9.738;2022-08-07T06:56:34;22.10;70.20
7606;DHT22;3844;53.360;9.738;2022-08-07T06:58:39;22.40;69.00
7606;DHT22;3844;53.360;9.738;2022-08-07T07:00:42;22.70;67.10
7606;DHT22;3844;53.360;9.738;2022-08-07T07:02:44;22.80;64.40
7606;DHT22;3844;53.360;9.738;2022-08-07T07:04:46;22.80;65.00
7606;DHT22;3844;53.360;9.738;2022-08-07T07:06:47;22.70;64.30
7606;DHT22;3844;53.360;9.738;2022-08-07T07:08:48;22.80;64.40
7606;DHT22;3844;53.360;9.738;2022-08-07T07:10:49;22.80;63.10
7606;DHT22;3844;53.360;9.738;2022-08-07T07:12:53;22.70;63.20
7606;DHT22;3844;53.360;9.738;2022-08-07T07:15:05;22.80;63.50
7606;DHT22;3844;53.360;9.738;2022-08-07T07:17:24;22.90;63.90
7606;DHT22;3844;53.360;9.738;2022-08-07T07:19:37;23.00;63.20
7606;DHT22;3844;53.360;9.738;2022-08-07T07:21:41;23.10;62.30
7606;DHT22;3844;53.360;9.738;2022-08-07T07:23:43;23.20;62.40
7606;DHT22;3844;53.360;9.738;2022-08-07T07:25:46;23.00;60.50
7606;DHT22;3844;53.360;9.738;2022-08-07T07:28:15;23.20;62.40
7606;DHT22;3844;53.360;9.738;2022-08-07T07:30:20;23.40;61.20
7606;DHT22;3844;53.360;9.738;2022-08-07T07:32:24;23.80;61.30
7606;DHT22;3844;53.360;9.738;2022-08-07T07:34:29;24.10;59.50
7606;DHT22;3844;53.360;9.738;2022-08-07T07:36:32;24.30;58.80
7606;DHT22;3844;53.360;9.738;2022-08-07T07:38:33;24.60;58.90
7606;DHT22;3844;53.360;9.738;2022-08-07T07:40:35;24.90;58.50
7606;DHT22;3844;53.360;9.738;2022-08-07T07:42:37;25.30;57.20
7606;DHT22;3844;53.360;9.738;2022-08-07T07:44:42;25.20;55.00
7606;DHT22;3844;53.360;9.738;2022-08-07T07:46:43;25.20;56.60
7606;DHT22;3844;53.360;9.738;2022-08-07T07:48:45;25.30;55.60
7606;DHT22;3844;53.360;9.738;2022-08-07T07:50:49;25.30;55.30
7606;DHT22;3844;53.360;9.738;2022-08-07T07:52:51;25.20;54.50
7606;DHT22;3844;53.360;9.738;2022-08-07T07:54:53;25.20;53.10
7606;DHT22;3844;53.360;9.738;2022-08-07T07:56:56;25.20;54.20
7606;DHT22;3844;53.360;9.738;2022-08-07T07:58:59;25.60;55.00
7606;DHT22;3844;53.360;9.738;2022-08-07T08:01:00;26.00;54.20
7606;DHT22;3844;53.360;9.738;2022-08-07T08:03:09;26.40;53.20
7606;DHT22;3844;53.360;9.738;2022-08-07T08:05:11;26.50;51.90
7606;DHT22;3844;53.360;9.738;2022-08-07T08:07:13;26.60;51.90
7606;DHT22;3844;53.360;9.738;2022-08-07T08:09:18;26.70;52.60
7606;DHT22;3844;53.360;9.738;2022-08-07T08:11:20;27.00;51.80
7606;DHT22;3844;53.360;9.738;2022-08-07T08:13:22;26.80;50.60
7606;DHT22;3844;53.360;9.738;2022-08-07T08:15:26;27.00;51.70
7606;DHT22;3844;53.360;9.738;2022-08-07T08:17:28;27.20;50.20
7606;DHT22;3844;53.360;9.738;2022-08-07T08:19:31;27.20;49.90
7606;DHT22;3844;53.360;9.738;2022-08-07T08:21:35;27.10;50.10
7606;DHT22;3844;53.360;9.738;2022-08-07T08:23:55;27.40;50.20
7606;DHT22;3844;53.360;9.738;2022-08-07T08:26:20;27.60;49.80
7606;DHT22;3844;53.360;9.738;2022-08-07T08:28:42;27.80;49.00
7606;DHT22;3844;53.360;9.738;2022-08-07T08:30:44;27.60;50.20
7606;DHT22;3844;53.360;9.738;2022-08-07T08:32:58;27.60;48.80
7606;DHT22;3844;53.360;9.738;2022-08-07T08:35:01;27.40;48.50
7606;DHT22;3844;53.360;9.738;2022-08-07T08:37:04;27.30;48.70
7606;DHT22;3844;53.360;9.738;2022-08-07T08:39:07;27.50;50.60
7606;DHT22;3844;53.360;9.738;2022-08-07T08:41:26;27.80;49.80
7606;DHT22;3844;53.360;9.738;2022-08-07T08:50:24;28.60;47.10
7606;DHT22;3844;53.360;9.738;2022-08-07T08:52:39;28.10;47.10
7606;DHT22;3844;53.360;9.738;2022-08-07T08:54:46;27.90;47.80
7606;DHT22;3844;53.360;9.738;2022-08-07T08:56:50;27.80;48.60
7606;DHT22;3844;53.360;9.738;2022-08-07T09:01:13;28.20;50.50
7606;DHT22;3844;53.360;9.738;2022-08-07T09:03:23;28.30;48.90
7606;DHT22;3844;53.360;9.738;2022-08-07T09:07:51;28.20;47.70
7606;DHT22;3844;53.360;9.738;2022-08-07T09:12:36;28.90;46.20
7606;DHT22;3844;53.360;9.738;2022-08-07T09:14:58;29.00;46.50
7606;DHT22;3844;53.360;9.738;2022-08-07T09:25:11;29.40;47.30
7606;DHT22;3844;53.360;9.738;2022-08-07T09:32:01;29.80;45.50
7606;DHT22;3844;53.360;9.738;2022-08-07T09:34:27;29.00;45.30
7606;DHT22;3844;53.360;9.738;2022-08-07T09:36:39;28.50;46.70
7606;DHT22;3844;53.360;9.738;2022-08-07T09:38:50;28.50;46.80
7606;DHT22;3844;53.360;9.738;2022-08-07T09:41:05;28.90;46.80
7606;DHT22;3844;53.360;9.738;2022-08-07T09:43:18;28.80;46.10
7606;DHT22;3844;53.360;9.738;2022-08-07T09:48:15;28.30;48.30
7606;DHT22;3844;53.360;9.738;2022-08-07T09:52:45;28.50;46.40
7606;DHT22;3844;53.360;9.738;2022-08-07T09:59:04;27.90;47.50
7606;DHT22;3844;53.360;9.738;2022-08-07T10:04:06;27.50;49.20
7606;DHT22;3844;53.360;9.738;2022-08-07T10:09:10;28.40;46.80
7606;DHT22;3844;53.360;9.738;2022-08-07T10:12:11;28.00;46.90
7606;DHT22;3844;53.360;9.738;2022-08-07T10:29:32;29.10;47.30
7606;DHT22;3844;53.360;9.738;2022-08-07T10:36:46;29.60;46.50
7606;DHT22;3844;53.360;9.738;2022-08-07T10:38:57;30.20;46.80
7606;DHT22;3844;53.360;9.738;2022-08-07T10:41:37;30.90;45.10
7606;DHT22;3844;53.360;9.738;2022-08-07T10:43:47;30.40;43.70
7606;DHT22;3844;53.360;9.738;2022-08-07T10:46:00;29.90;45.80
7606;DHT22;3844;53.360;9.738;2022-08-07T10:50:36;30.30;44.30
7606;DHT22;3844;53.360;9.738;2022-08-07T10:53:09;29.40;45.00
7606;DHT22;3844;53.360;9.738;2022-08-07T10:55:14;28.00;45.50
7606;DHT22;3844;53.360;9.738;2022-08-07T11:02:04;26.80;50.00
7606;DHT22;3844;53.360;9.738;2022-08-07T11:04:15;26.80;48.60
7606;DHT22;3844;53.360;9.738;2022-08-07T11:06:35;26.60;50.20
7606;DHT22;3844;53.360;9.738;2022-08-07T11:09:08;26.20;50.30
7606;DHT22;3844;53.360;9.738;2022-08-07T11:11:20;26.30;50.30
7606;DHT22;3844;53.360;9.738;2022-08-07T11:15:39;25.70;50.70
7606;DHT22;3844;53.360;9.738;2022-08-07T11:20:06;25.20;53.80
7606;DHT22;3844;53.360;9.738;2022-08-07T11:22:24;25.80;51.50
7606;DHT22;3844;53.360;9.738;2022-08-07T11:29:32;28.70;45.70
7606;DHT22;3844;53.360;9.738;2022-08-07T11:31:43;29.60;45.70
7606;DHT22;3844;53.360;9.738;2022-08-07T11:37:01;28.80;44.50
7606;DHT22;3844;53.360;9.738;2022-08-07T11:39:34;28.10;46.30
7606;DHT22;3844;53.360;9.738;2022-08-07T11:42:34;27.70;48.10
7606;DHT22;3844;53.360;9.738;2022-08-07T11:44:13;27.40;47.40
7606;DHT22;3844;53.360;9.738;2022-08-07T12:01:00;27.50;49.00
7606;DHT22;3844;53.360;9.738;2022-08-07T12:10:27;26.50;47.40
7606;DHT22;3844;53.360;9.738;2022-08-07T12:12:52;26.20;50.40
7606;DHT22;3844;53.360;9.738;2022-08-07T12:17:13;25.90;50.20
7606;DHT22;3844;53.360;9.738;2022-08-07T12:21:46;25.70;50.30
7606;DHT22;3844;53.360;9.738;2022-08-07T12:26:16;26.60;49.50
7606;DHT22;3844;53.360;9.738;2022-08-07T12:28:30;27.90;49.50
7606;DHT22;3844;53.360;9.738;2022-08-07T12:30:36;29.30;46.60
7606;DHT22;3844;53.360;9.738;2022-08-07T12:32:53;30.20;44.40
7606;DHT22;3844;53.360;9.738;2022-08-07T12:35:01;30.70;45.20
7606;DHT22;3844;53.360;9.738;2022-08-07T12:37:03;30.80;43.40
7606;DHT22;3844;53.360;9.738;2022-08-07T12:39:05;30.40;43.30
7606;DHT22;3844;53.360;9.738;2022-08-07T12:41:06;30.00;43.60
7606;DHT22;3844;53.360;9.738;2022-08-07T12:43:09;30.00;43.60
7606;DHT22;3844;53.360;9.738;2022-08-07T12:45:14;28.80;44.60
7606;DHT22;3844;53.360;9.738;2022-08-07T12:51:36;27.30;47.50
7606;DHT22;3844;53.360;9.738;2022-08-07T12:53:56;27.60;46.60
7606;DHT22;3844;53.360;9.738;2022-08-07T12:58:22;28.60;46.60
7606;DHT22;3844;53.360;9.738;2022-08-07T13:09:51;29.10;43.00
7606;DHT22;3844;53.360;9.738;2022-08-07T13:12:26;28.90;44.10
7606;DHT22;3844;53.360;9.738;2022-08-07T13:20:50;27.30;46.70
7606;DHT22;3844;53.360;9.738;2022-08-07T13:23:28;26.90;47.30
7606;DHT22;3844;53.360;9.738;2022-08-07T13:25:44;26.80;47.70
7606;DHT22;3844;53.360;9.738;2022-08-07T13:27:51;26.70;46.40
7606;DHT22;3844;53.360;9.738;2022-08-07T13:30:05;26.50;47.70
7606;DHT22;3844;53.360;9.738;2022-08-07T13:32:14;26.20;48.20
7606;DHT22;3844;53.360;9.738;2022-08-07T13:36:41;26.90;50.60
7606;DHT22;3844;53.360;9.738;2022-08-07T13:43:29;28.10;45.80
7606;DHT22;3844;53.360;9.738;2022-08-07T13:45:34;27.90;46.10
7606;DHT22;3844;53.360;9.738;2022-08-07T13:47:52;27.60;46.60
7606;DHT22;3844;53.360;9.738;2022-08-07T13:50:04;27.20;47.30
7606;DHT22;3844;53.360;9.738;2022-08-07T13:52:15;26.60;47.40
7606;DHT22;3844;53.360;9.738;2022-08-07T13:54:20;26.20;49.10
7606;DHT22;3844;53.360;9.738;2022-08-07T13:56:40;25.90;49.50
7606;DHT22;3844;53.360;9.738;2022-08-07T13:58:52;25.80;50.00
7606;DHT22;3844;53.360;9.738;2022-08-07T14:01:16;25.70;51.80
7606;DHT22;3844;53.360;9.738;2022-08-07T14:03:25;25.60;50.60
7606;DHT22;3844;53.360;9.738;2022-08-07T14:05:35;25.50;51.90
7606;DHT22;3844;53.360;9.738;2022-08-07T14:07:47;25.50;51.80
7606;DHT22;3844;53.360;9.738;2022-08-07T14:09:54;25.60;50.90
7606;DHT22;3844;53.360;9.738;2022-08-07T14:12:12;26.00;51.60
7606;DHT22;3844;53.360;9.738;2022-08-07T14:15:11;26.50;47.70
7606;DHT22;3844;53.360;9.738;2022-08-07T14:17:11;26.90;48.00
7606;DHT22;3844;53.360;9.738;2022-08-07T14:19:20;27.10;47.90
7606;DHT22;3844;53.360;9.738;2022-08-07T14:21:31;26.90;45.80
7606;DHT22;3844;53.360;9.738;2022-08-07T14:23:36;26.50;46.80
7606;DHT22;3844;53.360;9.738;2022-08-07T14:25:45;26.00;48.00
7606;DHT22;3844;53.360;9.738;2022-08-07T14:27:50;25.60;49.30
7606;DHT22;3844;53.360;9.738;2022-08-07T14:29:55;25.40;50.70
7606;DHT22;3844;53.360;9.738;2022-08-07T14:32:03;25.10;50.20
7606;DHT22;3844;53.360;9.738;2022-08-07T14:34:07;24.90;51.90
7606;DHT22;3844;53.360;9.738;2022-08-07T14:36:10;24.70;52.60
7606;DHT22;3844;53.360;9.738;2022-08-07T14:38:14;24.70;52.70
7606;DHT22;3844;53.360;9.738;2022-08-07T14:40:16;24.80;51.60
7606;DHT22;3844;53.360;9.738;2022-08-07T14:42:24;25.00;51.70
7606;DHT22;3844;53.360;9.738;2022-08-07T14:44:27;25.20;50.70
7606;DHT22;3844;53.360;9.738;2022-08-07T14:46:33;25.20;50.40
7606;DHT22;3844;53.360;9.738;2022-08-07T14:48:37;25.20;50.80
7606;DHT22;3844;53.360;9.738;2022-08-07T14:50:49;25.30;50.70
7606;DHT22;3844;53.360;9.738;2022-08-07T14:52:50;25.40;49.90
7606;DHT22;3844;53.360;9.738;2022-08-07T14:54:53;25.60;50.20
7606;DHT22;3844;53.360;9.738;2022-08-07T14:56:56;26.00;50.40
7606;DHT22;3844;53.360;9.738;2022-08-07T14:59:06;26.30;50.70
7606;DHT22;3844;53.360;9.738;2022-08-07T15:01:11;26.50;49.10
7606;DHT22;3844;53.360;9.738;2022-08-07T15:03:15;26.50;48.10
7606;DHT22;3844;53.360;9.738;2022-08-07T15:05:17;26.70;48.00
7606;DHT22;3844;53.360;9.738;2022-08-07T15:07:27;26.70;48.30
7606;DHT22;3844;53.360;9.738;2022-08-07T15:09:29;26.80;47.90
7606;DHT22;3844;53.360;9.738;2022-08-07T15:11:38;26.80;46.30
7606;DHT22;3844;53.360;9.738;2022-08-07T15:13:59;26.40;46.70
7606;DHT22;3844;53.360;9.738;2022-08-07T15:16:06;26.10;48.20
7606;DHT22;3844;53.360;9.738;2022-08-07T15:18:17;25.80;49.20
7606;DHT22;3844;53.360;9.738;2022-08-07T15:20:27;25.40;50.20
7606;DHT22;3844;53.360;9.738;2022-08-07T15:22:41;25.30;50.70
7606;DHT22;3844;53.360;9.738;2022-08-07T15:24:46;25.20;50.50
7606;DHT22;3844;53.360;9.738;2022-08-07T15:27:08;25.20;51.30
7606;DHT22;3844;53.360;9.738;2022-08-07T15:29:16;25.30;51.40
7606;DHT22;3844;53.360;9.738;2022-08-07T15:31:22;25.50;50.90
7606;DHT22;3844;53.360;9.738;2022-08-07T15:33:27;25.60;51.30
7606;DHT22;3844;53.360;9.738;2022-08-07T15:35:35;25.60;50.00
7606;DHT22;3844;53.360;9.738;2022-08-07T15:37:38;25.60;51.70
7606;DHT22;3844;53.360;9.738;2022-08-07T15:39:41;25.40;51.20
7606;DHT22;3844;53.360;9.738;2022-08-07T15:42:02;25.20;50.10
7606;DHT22;3844;53.360;9.738;2022-08-07T15:44:09;25.00;51.30
7606;DHT22;3844;53.360;9.738;2022-08-07T15:46:21;24.90;51.70
7606;DHT22;3844;53.360;9.738;2022-08-07T15:48:30;24.80;51.00
7606;DHT22;3844;53.360;9.738;2022-08-07T15:50:50;24.70;52.10
7606;DHT22;3844;53.360;9.738;2022-08-07T15:52:58;24.70;51.40
7606;DHT22;3844;53.360;9.738;2022-08-07T15:55:06;24.50;52.70
7606;DHT22;3844;53.360;9.738;2022-08-07T15:57:12;24.40;52.10
7606;DHT22;3844;53.360;9.738;2022-08-07T15:59:25;24.50;52.70
7606;DHT22;3844;53.360;9.738;2022-08-07T16:01:37;24.30;49.60
7606;DHT22;3844;53.360;9.738;2022-08-07T16:03:39;24.20;49.90
7606;DHT22;3844;53.360;9.738;2022-08-07T16:05:45;24.10;51.20
7606;DHT22;3844;53.360;9.738;2022-08-07T16:07:53;24.10;51.70
7606;DHT22;3844;53.360;9.738;2022-08-07T16:14:56;24.00;52.70
7606;DHT22;3844;53.360;9.738;2022-08-07T16:20:00;23.90;53.50
7606;DHT22;3844;53.360;9.738;2022-08-07T16:22:07;23.90;53.20
7606;DHT22;3844;53.360;9.738;2022-08-07T16:24:18;23.80;52.90
7606;DHT22;3844;53.360;9.738;2022-08-07T16:26:43;23.70;53.90
7606;DHT22;3844;53.360;9.738;2022-08-07T16:29:05;23.60;54.90
7606;DHT22;3844;53.360;9.738;2022-08-07T16:31:25;23.60;54.40